Time;durP1;ratioP1;P1;durP2;ratioP2;P2;SDS_P1;SDS_P2;PMS_P1;PMS_P2;Temp;Humidity;BMP_temperature;BMP_pressure;BME280_temperature;BME280_humidity;BME280_pressure;Samples;Min_cycle;Max_cycle;Signal;HPM_P1;HPM_P2
2022/10/15 00:01:34;;;;;;;1.30;1.20;;;15.10;99.90;;;;;;5074684;28;20484;-55
2022/10/15 00:04:02;;;;;;;1.60;1.50;;;15.10;99.90;;;;;;5074895;28;20498;-54
2022/10/15 00:06:30;;;;;;;1.20;1.10;;;15.10;99.90;;;;;;5073147;28;20935;-55
2022/10/15 00:08:57;;;;;;;1.40;1.30;;;15.10;99.90;;;;;;5074169;28;20463;-55
2022/10/15 00:11:26;;;;;;;1.33;1.20;;;15.20;99.90;;;;;;5074516;28;20459;-55
2022/10/15 00:13:54;;;;;;;1.60;1.20;;;15.20;99.90;;;;;;5072653;28;20429;-55
2022/10/15 00:16:24;;;;;;;1.70;1.40;;;15.20;99.90;;;;;;5074176;28;20452;-55
2022/10/15 00:18:52;;;;;;;1.73;1.43;;;15.20;99.90;;;;;;5073844;28;20425;-55
2022/10/15 00:21:21;;;;;;;2.03;1.10;;;15.20;99.90;;;;;;5072649;28;20480;-55
2022/10/15 00:23:49;;;;;;;1.60;1.20;;;15.20;99.90;;;;;;5074308;28;20444;-55
2022/10/15 00:26:19;;;;;;;3.93;1.50;;;15.20;99.90;;;;;;5073925;28;20455;-55
2022/10/15 00:28:48;;;;;;;1.30;1.17;;;15.20;99.90;;;;;;5072764;28;20767;-55
2022/10/15 00:31:18;;;;;;;2.70;2.03;;;15.30;99.90;;;;;;5074277;28;20452;-55
2022/10/15 00:33:45;;;;;;;1.20;1.10;;;15.20;99.90;;;;;;5074188;28;20490;-55
2022/10/15 00:36:14;;;;;;;2.03;1.10;;;15.20;99.90;;;;;;5072900;28;20448;-55
2022/10/15 00:38:43;;;;;;;1.50;1.10;;;15.20;99.90;;;;;;5074252;28;20444;-55
2022/10/15 00:41:14;;;;;;;2.33;1.20;;;15.20;99.90;;;;;;5073682;28;20444;-55
2022/10/15 00:43:44;;;;;;;1.30;1.20;;;15.20;99.90;;;;;;5072424;28;20478;-55
2022/10/15 00:46:22;;;;;;;1.40;1.30;;;15.20;99.90;;;;;;5073939;28;20432;-55
2022/10/15 00:48:53;;;;;;;1.27;1.17;;;15.20;99.90;;;;;;5073353;28;20476;-55
2022/10/15 00:51:22;;;;;;;1.53;1.20;;;15.10;99.90;;;;;;5072725;28;20435;-55
2022/10/15 00:53:51;;;;;;;3.00;1.10;;;15.20;99.90;;;;;;5073777;28;20458;-55
2022/10/15 00:56:22;;;;;;;1.60;1.03;;;15.20;99.90;;;;;;5073850;28;20784;-55
2022/10/15 00:58:50;;;;;;;3.23;1.30;;;15.20;99.90;;;;;;5072838;28;20531;-55
2022/10/15 01:01:17;;;;;;;2.00;1.20;;;15.20;99.90;;;;;;5073527;28;20491;-55
2022/10/15 01:03:44;;;;;;;1.30;1.20;;;15.20;99.90;;;;;;5073119;28;20986;-55
2022/10/15 01:06:11;;;;;;;1.30;1.20;;;15.20;99.90;;;;;;5072382;28;20793;-55
2022/10/15 01:08:39;;;;;;;1.20;1.10;;;15.20;99.90;;;;;;5073192;28;20525;-55
2022/10/15 01:11:20;;;;;;;2.73;1.37;;;15.20;99.90;;;;;;5073449;28;20448;-55
2022/10/15 01:14:00;;;;;;;1.40;1.30;;;15.30;99.90;;;;;;5072513;28;20429;-55
2022/10/15 01:16:36;;;;;;;1.57;1.03;;;15.30;99.90;;;;;;5073171;28;20453;-55
2022/10/15 01:19:07;;;;;;;1.40;1.17;;;15.30;99.90;;;;;;5073239;28;20486;-55
2022/10/15 01:21:40;;;;;;;2.97;1.00;;;15.30;99.90;;;;;;5072043;28;20820;-55
2022/10/15 01:24:41;;;;;;;1.10;1.00;;;15.40;99.90;;;;;;5073067;28;20440;-55
2022/10/15 01:27:24;;;;;;;1.20;1.10;;;15.40;99.90;;;;;;5072157;28;20453;-55
2022/10/15 01:30:13;;;;;;;1.63;1.27;;;15.40;99.90;;;;;;5072236;28;20439;-55
2022/10/15 01:32:48;;;;;;;1.10;1.00;;;15.30;99.90;;;;;;5072842;28;20951;-55
2022/10/15 01:35:33;;;;;;;1.40;1.30;;;15.30;99.90;;;;;;5072241;28;20437;-55
2022/10/15 01:38:12;;;;;;;3.73;1.30;;;15.40;99.90;;;;;;5072692;28;20421;-55
2022/10/15 01:40:46;;;;;;;1.40;1.30;;;15.30;99.90;;;;;;5072775;28;20435;-55
2022/10/15 01:43:17;;;;;;;4.07;1.30;;;15.30;99.90;;;;;;5071582;28;20490;-55
2022/10/15 01:45:51;;;;;;;1.10;1.00;;;15.30;99.90;;;;;;5072961;28;20531;-55
2022/10/15 01:48:19;;;;;;;2.50;1.10;;;15.30;99.90;;;;;;5072372;28;20488;-55
2022/10/15 01:50:53;;;;;;;2.37;1.37;;;15.40;99.90;;;;;;5070676;28;20464;-55
2022/10/15 01:53:25;;;;;;;1.63;1.47;;;15.40;99.90;;;;;;5072303;28;20463;-55
2022/10/15 01:55:55;;;;;;;2.80;1.23;;;15.40;99.90;;;;;;5072683;28;20911;-55
2022/10/15 01:58:24;;;;;;;1.50;1.10;;;15.40;99.90;;;;;;5071813;28;20463;-55
2022/10/15 02:00:54;;;;;;;1.60;1.00;;;15.40;99.90;;;;;;5072759;28;20451;-55
2022/10/15 02:03:21;;;;;;;1.30;1.20;;;15.40;99.90;;;;;;5072277;28;21013;-55
2022/10/15 02:05:53;;;;;;;3.27;1.30;;;15.50;99.90;;;;;;5071862;28;20455;-55
2022/10/15 02:08:28;;;;;;;2.67;1.00;;;15.50;99.90;;;;;;5072133;28;20440;-55
2022/10/15 02:11:00;;;;;;;1.57;1.30;;;15.50;99.90;;;;;;5072413;28;20424;-55
2022/10/15 02:13:38;;;;;;;2.07;1.10;;;15.50;99.90;;;;;;5071538;28;21022;-55
2022/10/15 02:16:13;;;;;;;3.10;1.40;;;15.50;99.90;;;;;;5072200;28;20424;-55
2022/10/15 02:18:47;;;;;;;1.77;1.10;;;15.50;99.90;;;;;;5072419;28;20438;-55
2022/10/15 02:21:17;;;;;;;1.50;1.10;;;15.50;99.90;;;;;;5071902;28;20428;-55
2022/10/15 02:23:47;;;;;;;1.27;1.17;;;;;;;;;;5072386;28;20492;-55
2022/10/15 02:26:16;;;;;;;1.20;0.90;;;15.50;99.90;;;;;;5071463;28;20445;-55
2022/10/15 02:28:47;;;;;;;1.17;1.07;;;15.50;99.90;;;;;;5072344;28;20448;-55
2022/10/15 02:31:18;;;;;;;1.40;1.30;;;15.50;99.90;;;;;;5072676;28;20432;-55
2022/10/15 02:33:47;;;;;;;1.33;1.00;;;15.60;99.90;;;;;;5071951;28;20825;-55
2022/10/15 02:36:15;;;;;;;1.40;1.20;;;15.60;99.90;;;;;;5072125;28;20449;-55
2022/10/15 02:38:44;;;;;;;1.50;1.00;;;15.60;99.90;;;;;;5072506;28;20495;-55
2022/10/15 02:41:12;;;;;;;1.30;1.00;;;15.60;99.90;;;;;;5071306;28;21108;-55
2022/10/15 02:43:41;;;;;;;1.53;1.10;;;15.60;99.90;;;;;;5074855;28;20864;-55
2022/10/15 02:46:12;;;;;;;1.47;1.20;;;15.60;99.90;;;;;;5076083;28;20448;-55
2022/10/15 02:48:40;;;;;;;1.90;1.03;;;15.60;99.90;;;;;;5074369;28;20480;-55
2022/10/15 02:51:08;;;;;;;1.70;1.10;;;15.60;99.90;;;;;;5075826;28;20448;-55
2022/10/15 02:53:35;;;;;;;1.13;1.03;;;15.60;99.90;;;;;;5076045;28;20470;-55
2022/10/15 02:56:02;;;;;;;1.53;1.10;;;15.70;99.90;;;;;;5075103;28;20444;-55
2022/10/15 02:58:29;;;;;;;2.43;1.23;;;15.60;99.90;;;;;;5075870;28;20433;-55
2022/10/15 03:00:56;;;;;;;2.17;1.47;;;15.60;99.90;;;;;;5076004;28;20953;-55
2022/10/15 03:03:24;;;;;;;1.30;1.00;;;15.60;99.90;;;;;;5074539;28;20483;-55
2022/10/15 03:05:52;;;;;;;2.13;1.30;;;15.60;99.90;;;;;;5075950;28;20452;-55
2022/10/15 03:08:19;;;;;;;1.97;1.10;;;15.60;99.90;;;;;;5075243;28;20942;-55
2022/10/15 03:10:46;;;;;;;1.30;1.17;;;15.70;99.90;;;;;;5075416;28;20448;-55
2022/10/15 03:13:13;;;;;;;1.40;1.13;;;15.70;99.90;;;;;;5075089;28;20847;-55
2022/10/15 03:15:40;;;;;;;3.13;1.27;;;15.70;99.90;;;;;;5075499;28;20773;-55
2022/10/15 03:18:08;;;;;;;1.70;1.10;;;15.70;99.90;;;;;;5075255;28;20808;-55
2022/10/15 03:20:35;;;;;;;1.30;1.20;;;15.80;99.90;;;;;;5075302;28;20969;-55
2022/10/15 03:23:03;;;;;;;3.27;1.10;;;15.80;99.90;;;;;;5075155;28;20502;-55
2022/10/15 03:25:30;;;;;;;2.20;1.30;;;15.80;99.90;;;;;;5075126;28;20444;-55
2022/10/15 03:27:58;;;;;;;3.73;1.20;;;15.80;99.90;;;;;;5074726;28;20437;-54
2022/10/15 03:30:25;;;;;;;1.33;1.10;;;15.70;99.90;;;;;;5075015;28;20456;-54
2022/10/15 03:32:52;;;;;;;2.37;1.00;;;15.80;99.90;;;;;;5074630;28;20464;-54
2022/10/15 03:35:19;;;;;;;3.10;1.00;;;15.80;99.90;;;;;;5075297;28;20455;-54
2022/10/15 03:37:46;;;;;;;1.67;1.10;;;15.90;99.90;;;;;;5074693;28;20445;-54
2022/10/15 03:40:14;;;;;;;1.67;1.30;;;15.80;99.90;;;;;;5074463;28;20448;-55
2022/10/15 03:42:42;;;;;;;1.37;1.03;;;15.90;99.90;;;;;;5074229;28;20990;-55
2022/10/15 03:45:09;;;;;;;1.10;1.00;;;15.90;99.90;;;;;;5074881;28;20448;-55
2022/10/15 03:47:37;;;;;;;1.60;1.00;;;15.80;99.90;;;;;;5073632;28;20610;-55
2022/10/15 03:50:04;;;;;;;5.23;1.47;;;15.90;99.90;;;;;;5074032;28;20452;-54
2022/10/15 03:52:31;;;;;;;1.20;1.00;;;15.90;99.90;;;;;;5074439;28;20456;-55
2022/10/15 03:54:59;;;;;;;1.53;1.20;;;15.90;99.90;;;;;;5073662;28;20793;-55
2022/10/15 03:57:27;;;;;;;1.50;1.00;;;15.90;99.90;;;;;;5074368;28;20809;-55
2022/10/15 03:59:54;;;;;;;2.57;0.90;;;15.90;99.90;;;;;;5074382;28;20455;-54
2022/10/15 04:02:22;;;;;;;1.20;1.00;;;15.90;99.90;;;;;;5074029;28;20487;-55
2022/10/15 04:04:51;;;;;;;1.20;0.90;;;15.90;99.90;;;;;;5074334;28;20433;-55
2022/10/15 04:07:19;;;;;;;1.40;1.00;;;16.00;99.90;;;;;;5074600;28;20456;-54
2022/10/15 04:09:46;;;;;;;3.53;1.20;;;16.00;99.90;;;;;;5073728;28;20448;-54
2022/10/15 04:12:14;;;;;;;1.57;1.10;;;16.00;99.90;;;;;;5074184;28;20468;-54
2022/10/15 04:14:42;;;;;;;1.40;1.00;;;16.00;99.90;;;;;;5074490;28;20458;-54
2022/10/15 04:17:10;;;;;;;1.20;1.03;;;16.00;99.90;;;;;;5073708;28;20563;-54
2022/10/15 04:19:37;;;;;;;1.47;1.17;;;16.00;99.90;;;;;;5074075;28;20444;-55
2022/10/15 04:22:04;;;;;;;1.70;1.20;;;15.90;99.90;;;;;;5074283;28;20460;-55
2022/10/15 04:24:32;;;;;;;4.70;1.20;;;16.00;99.90;;;;;;5073733;28;20444;-54
2022/10/15 04:26:59;;;;;;;2.03;1.20;;;16.00;99.90;;;;;;5073430;28;20452;-54
2022/10/15 04:29:26;;;;;;;2.70;1.13;;;15.90;99.90;;;;;;5072770;28;20934;-54
2022/10/15 04:31:56;;;;;;;2.33;1.57;;;16.00;99.90;;;;;;5072472;28;20889;-54
2022/10/15 04:34:24;;;;;;;1.20;0.97;;;15.90;99.90;;;;;;5072755;28;20888;-54
2022/10/15 04:36:51;;;;;;;2.60;1.03;;;15.90;99.90;;;;;;5073037;28;20452;-54
2022/10/15 04:39:18;;;;;;;1.40;1.10;;;15.90;99.90;;;;;;5071727;28;20997;-55
2022/10/15 04:42:09;;;;;;;2.03;0.90;;;15.90;99.90;;;;;;5073385;28;20560;-55
2022/10/15 04:44:48;;;;;;;1.73;1.37;;;15.90;99.90;;;;;;5073248;28;20441;-55
2022/10/15 04:47:17;;;;;;;1.53;1.27;;;15.80;99.90;;;;;;5072601;28;20566;-55
2022/10/15 04:49:44;;;;;;;4.20;1.20;;;15.90;99.90;;;;;;5073612;28;20429;-55
2022/10/15 04:52:11;;;;;;;1.20;1.10;;;15.90;99.90;;;;;;5073764;28;20510;-54
2022/10/15 04:54:43;;;;;;;1.13;1.03;;;15.90;99.90;;;;;;5072674;28;20429;-54
2022/10/15 04:57:10;;;;;;;6.03;1.20;;;15.90;99.90;;;;;;5073748;28;20440;-54
2022/10/15 04:59:37;;;;;;;3.00;1.10;;;15.80;99.90;;;;;;5073580;28;20444;-55
2022/10/15 05:02:04;;;;;;;1.30;1.00;;;15.80;99.90;;;;;;5071999;28;20456;-54
2022/10/15 05:04:33;;;;;;;1.77;1.10;;;15.90;99.90;;;;;;5070635;28;20478;-54
2022/10/15 05:07:00;;;;;;;1.20;0.90;;;15.80;99.90;;;;;;5072751;28;20459;-54
2022/10/15 05:09:27;;;;;;;2.40;1.20;;;15.80;99.90;;;;;;5072687;28;20459;-55
2022/10/15 05:11:54;;;;;;;1.37;1.23;;;15.80;99.90;;;;;;5072808;28;20551;-55
2022/10/15 05:14:22;;;;;;;2.60;1.10;;;15.70;99.90;;;;;;5073313;28;20448;-55
2022/10/15 05:16:49;;;;;;;2.90;1.00;;;15.80;99.90;;;;;;5073100;28;20460;-55
2022/10/15 05:19:16;;;;;;;3.53;1.00;;;15.80;99.90;;;;;;5072642;28;20445;-55
2022/10/15 05:21:45;;;;;;;1.07;0.97;;;15.80;99.90;;;;;;5073016;28;20472;-54
2022/10/15 05:24:12;;;;;;;4.17;1.10;;;15.80;99.90;;;;;;5073063;28;20480;-54
2022/10/15 05:26:39;;;;;;;1.20;1.10;;;15.80;99.90;;;;;;5072592;28;20448;-55
2022/10/15 05:29:06;;;;;;;6.20;1.20;;;15.80;99.90;;;;;;5072731;28;20448;-54
2022/10/15 05:31:34;;;;;;;1.87;1.13;;;15.80;99.90;;;;;;5072961;28;20531;-54
2022/10/15 05:34:06;;;;;;;1.10;1.00;;;15.80;99.90;;;;;;5072100;28;20441;-54
2022/10/15 05:36:35;;;;;;;2.27;1.27;;;15.80;99.90;;;;;;5073038;28;20425;-54
2022/10/15 05:39:09;;;;;;;1.83;1.20;;;15.80;99.90;;;;;;5072194;28;20449;-54
2022/10/15 05:41:36;;;;;;;1.97;1.43;;;15.80;99.90;;;;;;5072910;28;20445;-55
2022/10/15 05:44:04;;;;;;;3.60;1.47;;;15.70;99.90;;;;;;5072916;28;20484;-54
2022/10/15 05:46:31;;;;;;;2.10;1.50;;;15.70;99.90;;;;;;5072177;28;20498;-55
2022/10/15 05:48:58;;;;;;;2.37;1.30;;;15.80;99.90;;;;;;5072095;28;20575;-54
2022/10/15 05:51:27;;;;;;;2.00;1.50;;;15.70;99.90;;;;;;5072761;28;20467;-55
2022/10/15 05:53:54;;;;;;;10.73;1.40;;;15.70;99.90;;;;;;5072009;28;20474;-54
2022/10/15 05:56:23;;;;;;;1.53;1.43;;;15.70;99.90;;;;;;5072556;28;20535;-54
2022/10/15 05:58:51;;;;;;;1.13;1.03;;;15.70;99.90;;;;;;5072730;28;20539;-54
2022/10/15 06:01:19;;;;;;;2.20;1.10;;;15.70;99.90;;;;;;5072373;28;20459;-54
2022/10/15 06:03:46;;;;;;;1.70;1.53;;;15.70;99.90;;;;;;5071850;28;20480;-55
2022/10/15 06:06:15;;;;;;;2.30;1.13;;;15.70;99.90;;;;;;5072458;28;20939;-54
2022/10/15 06:08:42;;;;;;;1.40;1.30;;;15.70;99.90;;;;;;5072085;28;20456;-54
2022/10/15 06:11:09;;;;;;;2.33;1.13;;;15.80;99.90;;;;;;5072299;28;20543;-54
2022/10/15 06:13:41;;;;;;;5.03;1.17;;;15.80;99.90;;;;;;5072638;28;20543;-54
2022/10/15 06:16:09;;;;;;;2.50;1.23;;;15.80;99.90;;;;;;5071851;28;20900;-54
2022/10/15 06:18:37;;;;;;;2.73;1.40;;;15.80;99.90;;;;;;5076384;28;20554;-55
2022/10/15 06:21:04;;;;;;;1.30;1.20;;;15.80;99.90;;;;;;5076395;28;20951;-54
2022/10/15 06:23:35;;;;;;;1.83;1.30;;;15.80;99.90;;;;;;5076063;28;20484;-54
2022/10/15 06:26:03;;;;;;;2.40;1.40;;;15.80;99.90;;;;;;5076631;28;20428;-54
2022/10/15 06:28:30;;;;;;;2.23;1.10;;;15.80;99.90;;;;;;5076097;28;20455;-54
2022/10/15 06:31:00;;;;;;;2.60;1.10;;;15.80;99.90;;;;;;5075084;28;20535;-54
2022/10/15 06:33:28;;;;;;;4.37;1.50;;;15.80;99.90;;;;;;5076160;28;20464;-55
2022/10/15 06:35:55;;;;;;;1.67;1.20;;;15.80;99.90;;;;;;5076417;28;20448;-54
2022/10/15 06:38:23;;;;;;;1.57;1.47;;;15.90;99.90;;;;;;5074902;28;20804;-54
2022/10/15 06:40:50;;;;;;;5.23;1.73;;;15.90;99.90;;;;;;5075987;28;20559;-55
2022/10/15 06:43:17;;;;;;;1.40;1.30;;;15.90;99.90;;;;;;5076036;28;20488;-54
2022/10/15 06:45:45;;;;;;;3.03;1.93;;;15.80;99.90;;;;;;5074877;28;20989;-54
2022/10/15 06:48:13;;;;;;;5.57;1.40;;;15.80;99.90;;;;;;5075834;28;20480;-55
2022/10/15 06:50:41;;;;;;;2.60;1.23;;;15.80;99.90;;;;;;5075467;28;20433;-55
2022/10/15 06:53:08;;;;;;;1.37;1.27;;;15.90;99.90;;;;;;5075340;28;20472;-54
2022/10/15 06:55:38;;;;;;;1.90;1.33;;;15.90;99.90;;;;;;5075646;28;20462;-55
2022/10/15 06:58:05;;;;;;;1.50;1.30;;;15.80;99.90;;;;;;5076139;28;20448;-54
2022/10/15 07:00:33;;;;;;;1.97;1.80;;;15.80;99.90;;;;;;5074790;28;20853;-54
2022/10/15 07:03:04;;;;;;;2.60;1.47;;;15.90;99.90;;;;;;5074927;28;20499;-54
2022/10/15 07:05:32;;;;;;;3.20;1.43;;;15.90;99.90;;;;;;5075621;28;20432;-54
2022/10/15 07:08:00;;;;;;;2.30;1.90;;;15.90;99.90;;;;;;5074900;28;20450;-54
2022/10/15 07:10:28;;;;;;;2.37;1.83;;;15.90;99.90;;;;;;5075643;28;20448;-54
2022/10/15 07:12:55;;;;;;;2.77;1.47;;;15.90;99.90;;;;;;5075261;28;20468;-54
2022/10/15 07:15:22;;;;;;;4.30;1.43;;;15.80;99.90;;;;;;5074150;28;20452;-54
2022/10/15 07:17:50;;;;;;;1.10;1.00;;;15.90;99.90;;;;;;5075353;28;20531;-61
2022/10/15 07:20:18;;;;;;;1.70;1.17;;;;;;;;;;5074678;28;20942;-60
2022/10/15 07:22:47;;;;;;;1.30;1.20;;;18.80;99.90;;;;;;5073147;28;20464;-59
2022/10/15 07:25:15;;;;;;;1.50;1.30;;;20.00;99.90;;;;;;5075250;28;20479;-60
2022/10/15 07:27:42;;;;;;;1.33;1.20;;;20.70;99.90;;;;;;5074666;28;20456;-60
2022/10/15 07:30:10;;;;;;;2.30;1.10;;;21.00;99.90;;;;;;5090117;28;20453;-59
2022/10/15 07:32:37;;;;;;;1.53;1.17;;;;;;;;;;5078333;28;20511;-60
2022/10/15 07:35:05;;;;;;;2.43;1.20;;;21.50;99.90;;;;;;5079383;28;20844;-56
2022/10/15 07:37:33;;;;;;;1.90;1.40;;;21.60;99.90;;;;;;5094432;28;20557;-56
2022/10/15 07:40:01;;;;;;;2.27;1.60;;;21.80;99.90;;;;;;5085175;28;20966;-57
2022/10/15 07:42:28;;;;;;;2.47;1.30;;;21.40;99.90;;;;;;5081098;28;21049;-55
2022/10/15 07:44:55;;;;;;;7.63;1.43;;;21.50;99.90;;;;;;5083679;28;20479;-57
2022/10/15 07:47:23;;;;;;;3.47;1.60;;;21.60;99.90;;;;;;5079962;28;20826;-58
2022/10/15 07:49:50;;;;;;;2.90;1.50;;;20.40;99.90;;;;;;5073696;28;20489;-54
2022/10/15 07:52:17;;;;;;;2.80;1.40;;;19.40;99.90;;;;;;5073818;28;20559;-54
2022/10/15 07:54:45;;;;;;;1.97;1.20;;;19.10;99.90;;;;;;5093753;28;20957;-54
2022/10/15 07:57:14;;;;;;;3.10;1.33;;;18.70;99.90;;;;;;5093891;28;20444;-58
2022/10/15 07:59:42;;;;;;;4.73;1.30;;;19.30;99.90;;;;;;5092309;28;20538;-53
2022/10/15 08:02:14;;;;;;;2.53;1.53;;;19.60;99.90;;;;;;5094120;28;20958;-55
2022/10/15 08:04:42;;;;;;;4.30;1.47;;;19.60;99.90;;;;;;5092643;28;20572;-58
2022/10/15 08:07:09;;;;;;;4.23;1.70;;;20.30;99.90;;;;;;5094131;28;20960;-55
2022/10/15 08:09:36;;;;;;;1.90;1.40;;;20.80;99.90;;;;;;5094505;28;20457;-57
2022/10/15 08:12:05;;;;;;;5.90;2.10;;;20.90;99.90;;;;;;5092835;28;20814;-51
2022/10/15 08:14:34;;;;;;;2.47;1.60;;;21.10;99.90;;;;;;5094563;28;20527;-57
2022/10/15 08:17:02;;;;;;;2.07;1.63;;;21.20;99.90;;;;;;5093925;28;20987;-58
2022/10/15 08:19:29;;;;;;;5.23;1.83;;;20.50;99.90;;;;;;5091792;28;20455;-54
2022/10/15 08:21:56;;;;;;;3.80;1.50;;;19.80;99.90;;;;;;5094177;28;20474;-59
2022/10/15 08:24:24;;;;;;;2.37;1.37;;;20.00;99.90;;;;;;5094059;28;20486;-58
2022/10/15 08:26:51;;;;;;;3.20;1.97;;;20.50;99.90;;;;;;5092026;28;20930;-58
2022/10/15 08:29:18;;;;;;;8.23;1.70;;;20.90;99.90;;;;;;5093632;28;20447;-56
2022/10/15 08:31:46;;;;;;;6.13;2.33;;;20.30;99.90;;;;;;5093036;28;20478;-53
2022/10/15 08:34:13;;;;;;;8.17;2.10;;;21.00;99.90;;;;;;5091777;28;20446;-58
2022/10/15 08:36:41;;;;;;;2.83;2.00;;;20.80;99.90;;;;;;5092646;28;20427;-58
2022/10/15 08:39:08;;;;;;;2.40;1.50;;;20.70;99.90;;;;;;5091873;28;20444;-51
2022/10/15 08:41:41;;;;;;;3.30;1.40;;;20.20;99.90;;;;;;5091151;28;20505;-57
2022/10/15 08:44:16;;;;;;;2.17;1.50;;;20.50;99.90;;;;;;5093083;28;20471;-60
2022/10/15 08:46:47;;;;;;;6.63;2.07;;;19.30;99.90;;;;;;5093179;28;20461;-56
2022/10/15 08:49:24;;;;;;;2.17;1.70;;;19.70;99.90;;;;;;5092671;28;20475;-56
2022/10/15 08:51:58;;;;;;;1.77;1.33;;;19.00;99.90;;;;;;5093491;28;20469;-55
2022/10/15 08:54:26;;;;;;;1.60;1.50;;;18.40;99.90;;;;;;5092508;28;20480;-57
2022/10/15 08:57:03;;;;;;;4.03;1.23;;;18.10;99.90;;;;;;5092904;28;20453;-56
2022/10/15 08:59:37;;;;;;;2.53;1.53;;;17.60;99.90;;;;;;5093666;28;20423;-54
2022/10/15 09:02:10;;;;;;;2.13;1.30;;;;;;;;;;5092045;28;20463;-55
2022/10/15 09:04:42;;;;;;;2.90;1.33;;;;;;;;;;5092991;28;20468;-52
2022/10/15 09:07:14;;;;;;;4.33;1.67;;;18.40;99.90;;;;;;5093184;28;20428;-57
2022/10/15 09:09:47;;;;;;;1.97;1.60;;;18.00;99.90;;;;;;5091024;28;20844;-59
2022/10/15 09:12:32;;;;;;;1.97;1.20;;;18.20;99.90;;;;;;5091788;28;20825;-56
2022/10/15 09:15:00;;;;;;;2.43;1.63;;;17.70;99.90;;;;;;5092434;28;20430;-60
2022/10/15 09:17:35;;;;;;;2.37;1.60;;;18.20;99.90;;;;;;5091923;28;20481;-57
2022/10/15 09:20:06;;;;;;;4.63;1.40;;;18.30;99.90;;;;;;5093107;28;20426;-58
2022/10/15 09:22:35;;;;;;;8.17;2.00;;;18.00;99.90;;;;;;5091305;28;20964;-57
2022/10/15 09:25:14;;;;;;;4.30;1.30;;;18.10;99.90;;;;;;5090383;28;20881;-58
2022/10/15 09:27:42;;;;;;;2.27;1.40;;;18.70;99.90;;;;;;5091730;28;20432;-59
2022/10/15 09:30:29;;;;;;;1.93;1.60;;;19.00;99.90;;;;;;5092599;28;20523;-56
2022/10/15 09:33:03;;;;;;;1.73;1.50;;;19.00;99.90;;;;;;5091205;28;20463;-56
2022/10/15 09:35:37;;;;;;;5.43;1.77;;;19.30;99.90;;;;;;5092543;28;20899;-55
2022/10/15 09:38:17;;;;;;;5.00;1.50;;;19.90;99.90;;;;;;5092139;28;20523;-54
2022/10/15 09:40:59;;;;;;;7.27;2.07;;;20.80;99.90;;;;;;5089767;28;20431;-58
2022/10/15 09:43:32;;;;;;;5.10;2.33;;;21.20;99.90;;;;;;5090774;28;20444;-55
2022/10/15 09:45:59;;;;;;;12.17;1.90;;;21.80;99.90;;;;;;5090524;28;20558;-58
2022/10/15 09:48:31;;;;;;;1.97;1.50;;;21.70;99.90;;;;;;5091178;28;20486;-54
2022/10/15 09:51:04;;;;;;;1.77;1.47;;;21.60;99.90;;;;;;5091586;28;20416;-58
2022/10/15 09:53:45;;;;;;;7.97;1.90;;;21.20;99.90;;;;;;5091883;28;20485;-59
2022/10/15 09:56:18;;;;;;;3.17;1.57;;;21.40;99.90;;;;;;5092265;28;20473;-56
2022/10/15 09:58:50;;;;;;;8.17;2.13;;;;;;;;;;5092700;28;20424;-55
2022/10/15 10:01:20;;;;;;;1.60;1.23;;;21.30;99.90;;;;;;5090976;28;20898;-59
2022/10/15 10:03:53;;;;;;;9.03;2.07;;;21.20;99.90;;;;;;5091761;28;20454;-56
2022/10/15 10:06:22;;;;;;;6.00;2.00;;;22.20;99.90;;;;;;5092295;28;20473;-57
2022/10/15 10:08:52;;;;;;;2.23;1.00;;;22.40;99.90;;;;;;5091274;28;20447;-58
2022/10/15 10:11:21;;;;;;;3.07;2.07;;;21.70;99.90;;;;;;5092155;28;20524;-61
2022/10/15 10:13:53;;;;;;;4.37;1.63;;;21.90;99.90;;;;;;5092131;28;20447;-55
2022/10/15 10:16:22;;;;;;;3.87;1.50;;;22.30;99.90;;;;;;5090906;28;20894;-57
2022/10/15 10:19:05;;;;;;;1.80;1.30;;;22.60;99.90;;;;;;5084399;28;20938;-55
2022/10/15 10:21:33;;;;;;;2.00;1.30;;;;;;;;;;5071307;28;20894;-57
2022/10/15 10:24:29;;;;;;;1.80;1.30;;;21.60;99.90;;;;;;5070683;28;20440;-56
2022/10/15 10:26:57;;;;;;;1.50;1.30;;;22.60;99.90;;;;;;5070628;28;20436;-57
2022/10/15 10:29:25;;;;;;;3.53;1.27;;;22.60;99.90;;;;;;5070304;28;20484;-56
2022/10/15 10:31:53;;;;;;;1.33;1.23;;;23.50;99.90;;;;;;5069887;28;20472;-58
2022/10/15 10:34:27;;;;;;;3.73;1.70;;;23.70;99.90;;;;;;5071226;28;20440;-60
2022/10/15 10:36:54;;;;;;;2.17;1.33;;;24.70;99.90;;;;;;5071224;28;20424;-60
2022/10/15 10:39:26;;;;;;;2.90;1.10;;;25.40;99.90;;;;;;5069753;28;20466;-60
2022/10/15 10:41:55;;;;;;;2.10;1.20;;;25.50;99.90;;;;;;5071621;28;20517;-58
2022/10/15 10:44:28;;;;;;;3.20;1.30;;;26.00;99.90;;;;;;5071733;28;20536;-58
2022/10/15 10:47:14;;;;;;;2.63;1.10;;;24.70;99.90;;;;;;5070948;28;20551;-58
2022/10/15 10:49:44;;;;;;;1.90;1.53;;;24.70;99.90;;;;;;5071654;28;20421;-56
2022/10/15 10:52:23;;;;;;;1.43;1.20;;;24.70;99.90;;;;;;5071782;28;20555;-58
2022/10/15 10:54:58;;;;;;;1.87;1.20;;;24.80;99.90;;;;;;5071478;28;20423;-56
2022/10/15 10:57:35;;;;;;;2.27;1.13;;;23.80;99.90;;;;;;5071916;28;20424;-55
2022/10/15 11:00:04;;;;;;;3.17;1.13;;;22.60;99.90;;;;;;5070704;28;20860;-53
2022/10/15 11:02:34;;;;;;;1.73;1.33;;;22.40;99.90;;;;;;5072610;28;20453;-53
2022/10/15 11:05:03;;;;;;;8.00;1.20;;;21.90;99.90;;;;;;5074755;28;20480;-52
2022/10/15 11:07:39;;;;;;;3.33;1.53;;;22.20;99.90;;;;;;5075436;28;20475;-51
2022/10/15 11:10:12;;;;;;;2.43;1.40;;;21.40;99.90;;;;;;5074864;28;20894;-52
2022/10/15 11:12:53;;;;;;;4.50;1.90;;;21.60;99.90;;;;;;5074810;28;20555;-53
2022/10/15 11:15:41;;;;;;;2.43;1.20;;;22.20;99.90;;;;;;5075145;28;20895;-57
2022/10/15 11:18:31;;;;;;;2.60;1.50;;;22.00;99.90;;;;;;5075602;28;20479;-55
2022/10/15 11:21:10;;;;;;;2.03;1.43;;;21.60;99.90;;;;;;5075556;28;20443;-56
2022/10/15 11:23:52;;;;;;;1.90;1.50;;;20.90;99.90;;;;;;5074620;28;20521;-56
2022/10/15 11:26:33;;;;;;;4.70;1.77;;;20.70;99.90;;;;;;5074943;28;20473;-54
2022/10/15 11:29:11;;;;;;;5.77;1.70;;;20.80;99.90;;;;;;5074407;28;20903;-56
2022/10/15 11:31:55;;;;;;;2.80;1.70;;;20.80;99.90;;;;;;5073893;28;20433;-54
2022/10/15 11:34:36;;;;;;;3.20;1.60;;;20.70;99.90;;;;;;5074711;28;20432;-55
2022/10/15 11:37:20;;;;;;;4.30;1.97;;;20.40;99.90;;;;;;5074618;28;20439;-55
2022/10/15 11:40:06;;;;;;;1.50;1.30;;;20.70;99.90;;;;;;5074725;28;20429;-54
2022/10/15 11:42:39;;;;;;;2.83;1.50;;;20.70;99.90;;;;;;5074522;28;20468;-54
2022/10/15 11:45:29;;;;;;;2.80;1.10;;;20.60;99.90;;;;;;5073294;28;20465;-54
2022/10/15 11:48:00;;;;;;;2.13;1.93;;;20.90;99.90;;;;;;5073666;28;20484;-53
2022/10/15 11:50:30;;;;;;;2.70;1.60;;;20.80;99.90;;;;;;5074310;28;20519;-54
2022/10/15 11:53:28;;;;;;;2.50;1.40;;;20.70;99.90;;;;;;5069504;28;20475;-54
2022/10/15 11:56:00;;;;;;;2.90;1.47;;;20.90;99.90;;;;;;5078689;28;20463;-54
2022/10/15 11:58:31;;;;;;;1.70;1.30;;;21.40;99.90;;;;;;5073694;28;20896;-55
2022/10/15 12:01:03;;;;;;;2.50;1.57;;;21.00;99.90;;;;;;5072339;28;20436;-55
2022/10/15 12:03:35;;;;;;;2.43;1.50;;;20.90;99.90;;;;;;5073201;28;20471;-57
2022/10/15 12:06:08;;;;;;;1.83;1.33;;;21.30;99.90;;;;;;5071343;28;20475;-57
2022/10/15 12:08:38;;;;;;;3.40;1.50;;;22.00;99.90;;;;;;5071894;28;20432;-57
2022/10/15 12:11:25;;;;;;;1.50;1.20;;;22.20;99.90;;;;;;5073024;28;20435;-56
2022/10/15 12:14:00;;;;;;;1.63;1.23;;;22.00;99.90;;;;;;5071932;28;20433;-59
2022/10/15 12:16:35;;;;;;;2.90;1.17;;;21.60;99.90;;;;;;5071928;28;20454;-60
2022/10/15 12:19:16;;;;;;;2.27;1.40;;;21.20;99.90;;;;;;5072471;28;20439;-60
2022/10/15 12:21:59;;;;;;;1.33;1.23;;;20.90;99.90;;;;;;5069197;28;20470;-59
2022/10/15 12:24:55;;;;;;;1.40;1.30;;;20.70;99.90;;;;;;5071719;28;20895;-60
2022/10/15 12:27:24;;;;;;;1.30;1.17;;;20.40;99.90;;;;;;5072509;28;20454;-59
2022/10/15 12:30:11;;;;;;;1.40;1.20;;;20.20;99.90;;;;;;5072200;28;20452;-57
2022/10/15 12:32:41;;;;;;;1.53;1.17;;;20.10;99.90;;;;;;5073744;28;20468;-57
2022/10/15 12:35:24;;;;;;;2.63;1.30;;;19.90;99.90;;;;;;5073774;28;20852;-57
2022/10/15 12:37:52;;;;;;;1.50;1.40;;;19.70;99.90;;;;;;5071318;28;20432;-57
2022/10/15 12:40:31;;;;;;;1.70;1.47;;;19.50;99.90;;;;;;5073744;28;20448;-57
2022/10/15 12:43:01;;;;;;;1.67;1.30;;;19.50;99.90;;;;;;5073666;28;20523;-57
2022/10/15 12:45:35;;;;;;;1.73;1.60;;;19.50;99.90;;;;;;5072461;28;20781;-57
2022/10/15 12:48:21;;;;;;;1.20;1.10;;;19.40;99.90;;;;;;5072437;28;20983;-57
2022/10/15 12:50:49;;;;;;;1.23;1.13;;;19.20;99.90;;;;;;5072207;28;20432;-57
2022/10/15 12:53:33;;;;;;;4.47;1.77;;;19.10;99.90;;;;;;5073445;28;20493;-57
2022/10/15 12:56:22;;;;;;;1.67;1.27;;;19.10;99.90;;;;;;5073506;28;20452;-57
2022/10/15 12:58:51;;;;;;;1.70;1.23;;;19.10;99.90;;;;;;5071827;28;20424;-57
2022/10/15 13:01:50;;;;;;;1.80;1.17;;;19.00;99.90;;;;;;5073259;28;20448;-58
2022/10/15 13:04:18;;;;;;;1.80;1.40;;;19.00;99.90;;;;;;5073394;28;20429;-57
2022/10/15 13:06:46;;;;;;;1.80;1.47;;;18.90;99.90;;;;;;5072233;28;20469;-57
2022/10/15 13:09:29;;;;;;;1.73;1.60;;;18.80;99.90;;;;;;5072867;28;20448;-57